Saint Petersburg, Russia
Current Conditions -  °F | °C
As of 9:00 AM on Friday 31 Oct 2014 (Local Time) from ULLI Reporting Station
Overcast Overcast  
Wind Chill:   Ceiling: 1800
Heat Index:   Visibility: 6mi
Dew Point:   Wind: 11mph
Humidity: 87%   Direction: 240°WSW
Pressure: 30.06"   Gusts: NA
Location:  59.93°N, 30.32°E
Report Text: ULLI 310600Z 24005MPS 9999 BKN018 OVC200 05/03 Q1018 88190060NOSIG
Loading
Personal Weather Stations






























Interactive Weather Map
Tropical Storm Tracking
New forecast layout! Learn more

10-Day Weather Forecast

Advertisements
Track Severe Weather on mobile